sensor_id;sensor_type;location;lat;lon;timestamp;P1;durP1;ratioP1;P2;durP2;ratioP2
12770;SDS011;6449;47.666;9.160;2022-08-04T00:03:42;2.38;;;2.17;;
12770;SDS011;6449;47.666;9.160;2022-08-04T00:08:47;2.30;;;2.10;;
12770;SDS011;6449;47.666;9.160;2022-08-04T00:13:49;2.53;;;2.33;;
12770;SDS011;6449;47.666;9.160;2022-08-04T00:18:54;2.78;;;2.58;;
12770;SDS011;6449;47.666;9.160;2022-08-04T00:23:54;2.70;;;2.42;;
12770;SDS011;6449;47.666;9.160;2022-08-04T00:29:02;3.35;;;2.53;;
12770;SDS011;6449;47.666;9.160;2022-08-04T00:33:57;2.50;;;2.30;;
12770;SDS011;6449;47.666;9.160;2022-08-04T00:38:52;2.25;;;2.05;;
12770;SDS011;6449;47.666;9.160;2022-08-04T00:43:50;3.92;;;2.22;;
12770;SDS011;6449;47.666;9.160;2022-08-04T00:49:18;2.63;;;2.42;;
12770;SDS011;6449;47.666;9.160;2022-08-04T00:54:49;3.55;;;2.10;;
12770;SDS011;6449;47.666;9.160;2022-08-04T01:00:03;2.53;;;2.28;;
12770;SDS011;6449;47.666;9.160;2022-08-04T01:05:02;3.15;;;2.85;;
12770;SDS011;6449;47.666;9.160;2022-08-04T01:10:02;2.92;;;2.70;;
12770;SDS011;6449;47.666;9.160;2022-08-04T01:15:09;2.50;;;2.30;;
12770;SDS011;6449;47.666;9.160;2022-08-04T01:20:15;2.65;;;2.45;;
12770;SDS011;6449;47.666;9.160;2022-08-04T01:25:27;2.78;;;2.55;;
12770;SDS011;6449;47.666;9.160;2022-08-04T01:30:41;2.00;;;1.90;;
12770;SDS011;6449;47.666;9.160;2022-08-04T01:35:41;3.17;;;2.55;;
12770;SDS011;6449;47.666;9.160;2022-08-04T01:40:40;2.67;;;2.47;;
12770;SDS011;6449;47.666;9.160;2022-08-04T01:45:37;2.67;;;2.47;;
12770;SDS011;6449;47.666;9.160;2022-08-04T01:50:39;2.58;;;2.38;;
12770;SDS011;6449;47.666;9.160;2022-08-04T01:55:43;2.50;;;2.30;;
12770;SDS011;6449;47.666;9.160;2022-08-04T02:00:49;2.58;;;2.38;;
12770;SDS011;6449;47.666;9.160;2022-08-04T02:05:57;2.72;;;2.50;;
12770;SDS011;6449;47.666;9.160;2022-08-04T02:11:13;2.42;;;2.25;;
12770;SDS011;6449;47.666;9.160;2022-08-04T02:16:12;2.75;;;2.55;;
12770;SDS011;6449;47.666;9.160;2022-08-04T02:21:16;2.25;;;2.05;;
12770;SDS011;6449;47.666;9.160;2022-08-04T02:26:16;2.47;;;2.28;;
12770;SDS011;6449;47.666;9.160;2022-08-04T02:31:16;2.60;;;2.40;;
12770;SDS011;6449;47.666;9.160;2022-08-04T02:36:23;2.85;;;2.30;;
12770;SDS011;6449;47.666;9.160;2022-08-04T02:41:26;2.85;;;2.50;;
12770;SDS011;6449;47.666;9.160;2022-08-04T02:46:23;2.85;;;2.40;;
12770;SDS011;6449;47.666;9.160;2022-08-04T02:51:19;2.50;;;2.30;;
12770;SDS011;6449;47.666;9.160;2022-08-04T02:56:17;2.75;;;2.50;;
12770;SDS011;6449;47.666;9.160;2022-08-04T03:01:11;2.67;;;2.47;;
12770;SDS011;6449;47.666;9.160;2022-08-04T03:06:26;2.80;;;2.60;;
12770;SDS011;6449;47.666;9.160;2022-08-04T03:18:36;2.78;;;2.58;;
12770;SDS011;6449;47.666;9.160;2022-08-04T03:24:26;3.05;;;2.75;;
12770;SDS011;6449;47.666;9.160;2022-08-04T03:35:15;4.05;;;2.78;;
12770;SDS011;6449;47.666;9.160;2022-08-04T03:41:03;4.00;;;3.00;;
12770;SDS011;6449;47.666;9.160;2022-08-04T03:46:47;2.78;;;2.58;;
12770;SDS011;6449;47.666;9.160;2022-08-04T03:52:29;2.70;;;2.50;;
12770;SDS011;6449;47.666;9.160;2022-08-04T03:58:10;3.33;;;2.58;;
12770;SDS011;6449;47.666;9.160;2022-08-04T04:09:42;2.80;;;2.60;;
12770;SDS011;6449;47.666;9.160;2022-08-04T04:15:17;4.55;;;2.50;;
12770;SDS011;6449;47.666;9.160;2022-08-04T04:20:34;2.72;;;2.53;;
12770;SDS011;6449;47.666;9.160;2022-08-04T04:26:05;2.70;;;2.50;;
12770;SDS011;6449;47.666;9.160;2022-08-04T04:31:32;3.45;;;3.10;;
12770;SDS011;6449;47.666;9.160;2022-08-04T04:36:58;2.83;;;2.40;;
12770;SDS011;6449;47.666;9.160;2022-08-04T04:42:34;2.90;;;2.58;;
12770;SDS011;6449;47.666;9.160;2022-08-04T04:47:48;2.75;;;2.55;;
12770;SDS011;6449;47.666;9.160;2022-08-04T04:53:02;3.22;;;2.75;;
12770;SDS011;6449;47.666;9.160;2022-08-04T04:58:10;3.53;;;2.90;;
12770;SDS011;6449;47.666;9.160;2022-08-04T05:08:46;3.20;;;2.90;;
12770;SDS011;6449;47.666;9.160;2022-08-04T05:14:00;3.33;;;3.03;;
12770;SDS011;6449;47.666;9.160;2022-08-04T05:19:22;3.03;;;2.72;;
12770;SDS011;6449;47.666;9.160;2022-08-04T05:24:24;3.17;;;2.85;;
12770;SDS011;6449;47.666;9.160;2022-08-04T05:29:26;5.32;;;2.50;;
12770;SDS011;6449;47.666;9.160;2022-08-04T05:34:27;2.80;;;2.55;;
12770;SDS011;6449;47.666;9.160;2022-08-04T05:39:27;2.75;;;2.50;;
12770;SDS011;6449;47.666;9.160;2022-08-04T05:44:26;3.17;;;2.88;;
12770;SDS011;6449;47.666;9.160;2022-08-04T05:49:20;3.70;;;2.42;;
12770;SDS011;6449;47.666;9.160;2022-08-04T05:54:17;2.63;;;2.40;;
12770;SDS011;6449;47.666;9.160;2022-08-04T05:59:13;2.33;;;2.13;;
12770;SDS011;6449;47.666;9.160;2022-08-04T06:04:10;3.03;;;2.50;;
12770;SDS011;6449;47.666;9.160;2022-08-04T06:09:05;3.20;;;2.15;;
12770;SDS011;6449;47.666;9.160;2022-08-04T06:14:02;3.38;;;2.70;;
12770;SDS011;6449;47.666;9.160;2022-08-04T06:19:01;2.53;;;2.33;;
12770;SDS011;6449;47.666;9.160;2022-08-04T06:24:18;2.58;;;2.33;;
12770;SDS011;6449;47.666;9.160;2022-08-04T06:29:17;2.60;;;2.40;;
12770;SDS011;6449;47.666;9.160;2022-08-04T06:34:17;2.42;;;2.22;;
12770;SDS011;6449;47.666;9.160;2022-08-04T06:39:11;2.60;;;2.40;;
12770;SDS011;6449;47.666;9.160;2022-08-04T06:44:06;2.45;;;2.25;;
12770;SDS011;6449;47.666;9.160;2022-08-04T06:49:03;2.95;;;2.28;;
12770;SDS011;6449;47.666;9.160;2022-08-04T06:53:58;4.05;;;2.95;;
12770;SDS011;6449;47.666;9.160;2022-08-04T06:58:51;2.72;;;2.45;;
12770;SDS011;6449;47.666;9.160;2022-08-04T07:03:47;2.85;;;2.65;;
12770;SDS011;6449;47.666;9.160;2022-08-04T07:08:42;3.13;;;2.83;;
12770;SDS011;6449;47.666;9.160;2022-08-04T07:13:36;2.95;;;2.75;;
12770;SDS011;6449;47.666;9.160;2022-08-04T07:18:35;3.42;;;2.50;;
12770;SDS011;6449;47.666;9.160;2022-08-04T07:23:29;2.55;;;2.35;;
12770;SDS011;6449;47.666;9.160;2022-08-04T07:28:25;4.35;;;2.85;;
12770;SDS011;6449;47.666;9.160;2022-08-04T07:33:20;2.65;;;2.45;;
12770;SDS011;6449;47.666;9.160;2022-08-04T07:38:16;2.60;;;2.40;;
12770;SDS011;6449;47.666;9.160;2022-08-04T07:43:17;2.90;;;2.60;;
12770;SDS011;6449;47.666;9.160;2022-08-04T07:48:12;3.47;;;2.95;;
12770;SDS011;6449;47.666;9.160;2022-08-04T07:53:09;2.85;;;2.65;;
12770;SDS011;6449;47.666;9.160;2022-08-04T07:58:25;3.03;;;2.72;;
12770;SDS011;6449;47.666;9.160;2022-08-04T08:03:21;2.80;;;2.60;;
12770;SDS011;6449;47.666;9.160;2022-08-04T08:08:16;3.40;;;3.03;;
12770;SDS011;6449;47.666;9.160;2022-08-04T08:13:11;2.88;;;2.67;;
12770;SDS011;6449;47.666;9.160;2022-08-04T08:18:06;3.15;;;2.80;;
12770;SDS011;6449;47.666;9.160;2022-08-04T08:23:01;3.65;;;2.60;;
12770;SDS011;6449;47.666;9.160;2022-08-04T08:27:55;3.22;;;2.92;;
12770;SDS011;6449;47.666;9.160;2022-08-04T08:32:48;5.55;;;2.90;;
12770;SDS011;6449;47.666;9.160;2022-08-04T08:37:44;3.13;;;2.83;;
12770;SDS011;6449;47.666;9.160;2022-08-04T08:42:57;2.85;;;2.58;;
12770;SDS011;6449;47.666;9.160;2022-08-04T08:48:39;3.13;;;2.90;;
12770;SDS011;6449;47.666;9.160;2022-08-04T08:53:57;2.97;;;2.78;;
12770;SDS011;6449;47.666;9.160;2022-08-04T08:59:34;3.30;;;3.05;;
12770;SDS011;6449;47.666;9.160;2022-08-04T09:05:01;3.05;;;2.85;;
12770;SDS011;6449;47.666;9.160;2022-08-04T09:10:14;3.47;;;2.58;;
12770;SDS011;6449;47.666;9.160;2022-08-04T09:15:23;3.33;;;3.03;;
12770;SDS011;6449;47.666;9.160;2022-08-04T09:20:28;2.92;;;2.72;;
12770;SDS011;6449;47.666;9.160;2022-08-04T09:25:29;3.35;;;3.05;;
12770;SDS011;6449;47.666;9.160;2022-08-04T09:30:33;2.90;;;2.70;;
12770;SDS011;6449;47.666;9.160;2022-08-04T09:35:39;3.42;;;3.13;;
12770;SDS011;6449;47.666;9.160;2022-08-04T09:40:43;3.58;;;3.28;;
12770;SDS011;6449;47.666;9.160;2022-08-04T09:45:52;3.25;;;2.95;;
12770;SDS011;6449;47.666;9.160;2022-08-04T09:50:57;3.25;;;3.00;;
12770;SDS011;6449;47.666;9.160;2022-08-04T09:55:54;3.13;;;2.92;;
12770;SDS011;6449;47.666;9.160;2022-08-04T10:01:01;3.05;;;2.85;;
12770;SDS011;6449;47.666;9.160;2022-08-04T10:06:06;3.38;;;3.08;;
12770;SDS011;6449;47.666;9.160;2022-08-04T10:11:20;3.40;;;3.00;;
12770;SDS011;6449;47.666;9.160;2022-08-04T10:16:51;3.08;;;2.88;;
12770;SDS011;6449;47.666;9.160;2022-08-04T10:21:57;3.10;;;2.83;;
12770;SDS011;6449;47.666;9.160;2022-08-04T10:27:24;3.92;;;2.90;;
12770;SDS011;6449;47.666;9.160;2022-08-04T10:32:27;3.33;;;3.05;;
12770;SDS011;6449;47.666;9.160;2022-08-04T10:37:35;3.45;;;3.15;;
12770;SDS011;6449;47.666;9.160;2022-08-04T10:42:53;3.60;;;3.30;;
12770;SDS011;6449;47.666;9.160;2022-08-04T10:47:56;3.08;;;2.88;;
12770;SDS011;6449;47.666;9.160;2022-08-04T10:53:02;2.72;;;2.53;;
12770;SDS011;6449;47.666;9.160;2022-08-04T10:58:03;3.35;;;3.05;;
12770;SDS011;6449;47.666;9.160;2022-08-04T11:03:06;3.72;;;3.42;;
12770;SDS011;6449;47.666;9.160;2022-08-04T11:08:14;3.50;;;3.20;;
12770;SDS011;6449;47.666;9.160;2022-08-04T11:13:13;2.92;;;2.72;;
12770;SDS011;6449;47.666;9.160;2022-08-04T11:18:24;2.90;;;2.70;;
12770;SDS011;6449;47.666;9.160;2022-08-04T11:23:32;3.40;;;3.10;;
12770;SDS011;6449;47.666;9.160;2022-08-04T11:28:32;3.38;;;3.08;;
12770;SDS011;6449;47.666;9.160;2022-08-04T11:33:59;3.05;;;2.85;;
12770;SDS011;6449;47.666;9.160;2022-08-04T11:39:04;3.30;;;3.00;;
12770;SDS011;6449;47.666;9.160;2022-08-04T11:44:04;3.42;;;3.17;;
12770;SDS011;6449;47.666;9.160;2022-08-04T11:49:07;4.97;;;3.35;;
12770;SDS011;6449;47.666;9.160;2022-08-04T11:54:08;3.78;;;3.00;;
12770;SDS011;6449;47.666;9.160;2022-08-04T11:59:05;3.28;;;3.00;;
12770;SDS011;6449;47.666;9.160;2022-08-04T12:04:01;3.25;;;2.80;;
12770;SDS011;6449;47.666;9.160;2022-08-04T12:09:06;3.30;;;3.08;;
12770;SDS011;6449;47.666;9.160;2022-08-04T12:14:12;3.85;;;2.90;;
12770;SDS011;6449;47.666;9.160;2022-08-04T12:19:20;2.92;;;2.72;;
12770;SDS011;6449;47.666;9.160;2022-08-04T12:24:48;2.88;;;2.67;;
12770;SDS011;6449;47.666;9.160;2022-08-04T12:29:51;3.10;;;2.80;;
12770;SDS011;6449;47.666;9.160;2022-08-04T12:35:10;3.33;;;2.97;;
12770;SDS011;6449;47.666;9.160;2022-08-04T12:40:14;4.57;;;3.28;;
12770;SDS011;6449;47.666;9.160;2022-08-04T12:45:20;2.95;;;2.75;;
12770;SDS011;6449;47.666;9.160;2022-08-04T12:50:15;3.15;;;2.85;;
12770;SDS011;6449;47.666;9.160;2022-08-04T12:55:10;3.00;;;2.80;;
12770;SDS011;6449;47.666;9.160;2022-08-04T13:00:07;2.90;;;2.70;;
12770;SDS011;6449;47.666;9.160;2022-08-04T13:05:03;3.22;;;2.92;;
12770;SDS011;6449;47.666;9.160;2022-08-04T13:10:10;2.75;;;2.55;;
12770;SDS011;6449;47.666;9.160;2022-08-04T13:15:10;2.78;;;2.58;;
12770;SDS011;6449;47.666;9.160;2022-08-04T13:20:09;3.03;;;2.55;;
12770;SDS011;6449;47.666;9.160;2022-08-04T13:25:04;2.85;;;2.65;;
12770;SDS011;6449;47.666;9.160;2022-08-04T13:30:20;2.78;;;2.58;;
12770;SDS011;6449;47.666;9.160;2022-08-04T13:35:16;2.90;;;2.70;;
12770;SDS011;6449;47.666;9.160;2022-08-04T13:40:10;2.55;;;2.35;;
12770;SDS011;6449;47.666;9.160;2022-08-04T13:45:07;2.90;;;2.50;;
12770;SDS011;6449;47.666;9.160;2022-08-04T13:50:09;2.67;;;2.47;;
12770;SDS011;6449;47.666;9.160;2022-08-04T13:55:17;2.50;;;2.30;;
12770;SDS011;6449;47.666;9.160;2022-08-04T14:00:14;2.83;;;2.60;;
12770;SDS011;6449;47.666;9.160;2022-08-04T14:05:22;2.67;;;2.47;;
12770;SDS011;6449;47.666;9.160;2022-08-04T14:10:27;3.25;;;2.55;;
12770;SDS011;6449;47.666;9.160;2022-08-04T14:15:35;2.80;;;2.53;;
12770;SDS011;6449;47.666;9.160;2022-08-04T14:20:58;2.75;;;2.55;;
12770;SDS011;6449;47.666;9.160;2022-08-04T14:25:56;12.57;;;2.88;;
12770;SDS011;6449;47.666;9.160;2022-08-04T14:30:49;2.47;;;2.28;;
12770;SDS011;6449;47.666;9.160;2022-08-04T14:35:44;2.63;;;2.42;;
12770;SDS011;6449;47.666;9.160;2022-08-04T14:40:55;2.50;;;2.30;;
12770;SDS011;6449;47.666;9.160;2022-08-04T14:45:52;2.30;;;2.10;;
12770;SDS011;6449;47.666;9.160;2022-08-04T14:51:04;2.60;;;2.40;;
12770;SDS011;6449;47.666;9.160;2022-08-04T14:56:17;2.50;;;2.30;;
12770;SDS011;6449;47.666;9.160;2022-08-04T15:01:31;2.00;;;1.90;;
12770;SDS011;6449;47.666;9.160;2022-08-04T15:06:27;2.00;;;1.90;;
12770;SDS011;6449;47.666;9.160;2022-08-04T15:11:26;1.88;;;1.77;;
12770;SDS011;6449;47.666;9.160;2022-08-04T15:16:20;1.83;;;1.73;;
12770;SDS011;6449;47.666;9.160;2022-08-04T15:21:16;1.73;;;1.63;;
12770;SDS011;6449;47.666;9.160;2022-08-04T15:26:14;2.05;;;1.95;;
12770;SDS011;6449;47.666;9.160;2022-08-04T15:31:16;2.00;;;1.90;;
12770;SDS011;6449;47.666;9.160;2022-08-04T15:36:34;1.90;;;1.80;;
12770;SDS011;6449;47.666;9.160;2022-08-04T15:41:54;1.80;;;1.70;;
12770;SDS011;6449;47.666;9.160;2022-08-04T15:47:11;1.92;;;1.80;;
12770;SDS011;6449;47.666;9.160;2022-08-04T15:52:08;2.25;;;2.05;;
12770;SDS011;6449;47.666;9.160;2022-08-04T15:57:05;2.35;;;1.80;;
12770;SDS011;6449;47.666;9.160;2022-08-04T16:07:55;1.75;;;1.60;;
12770;SDS011;6449;47.666;9.160;2022-08-04T16:12:54;1.52;;;1.42;;
12770;SDS011;6449;47.666;9.160;2022-08-04T16:17:50;2.88;;;1.60;;
12770;SDS011;6449;47.666;9.160;2022-08-04T16:22:44;1.70;;;1.60;;
12770;SDS011;6449;47.666;9.160;2022-08-04T16:27:45;1.70;;;1.60;;
12770;SDS011;6449;47.666;9.160;2022-08-04T16:32:39;2.65;;;1.80;;
12770;SDS011;6449;47.666;9.160;2022-08-04T16:37:36;1.55;;;1.45;;
12770;SDS011;6449;47.666;9.160;2022-08-04T16:42:34;1.80;;;1.70;;
12770;SDS011;6449;47.666;9.160;2022-08-04T16:52:59;1.95;;;1.85;;
12770;SDS011;6449;47.666;9.160;2022-08-04T16:58:24;1.70;;;1.60;;
12770;SDS011;6449;47.666;9.160;2022-08-04T17:03:24;1.77;;;1.67;;
12770;SDS011;6449;47.666;9.160;2022-08-04T17:08:18;1.67;;;1.58;;
12770;SDS011;6449;47.666;9.160;2022-08-04T17:13:22;1.50;;;1.40;;
12770;SDS011;6449;47.666;9.160;2022-08-04T17:18:41;1.73;;;1.60;;
12770;SDS011;6449;47.666;9.160;2022-08-04T17:23:38;2.20;;;1.63;;
12770;SDS011;6449;47.666;9.160;2022-08-04T17:28:55;1.75;;;1.65;;
12770;SDS011;6449;47.666;9.160;2022-08-04T17:33:55;1.77;;;1.67;;
12770;SDS011;6449;47.666;9.160;2022-08-04T17:38:52;1.50;;;1.38;;
12770;SDS011;6449;47.666;9.160;2022-08-04T17:43:51;1.67;;;1.58;;
12770;SDS011;6449;47.666;9.160;2022-08-04T17:49:10;2.13;;;1.92;;
12770;SDS011;6449;47.666;9.160;2022-08-04T17:54:13;1.80;;;1.70;;
12770;SDS011;6449;47.666;9.160;2022-08-04T17:59:27;2.08;;;1.90;;
12770;SDS011;6449;47.666;9.160;2022-08-04T21:15:47;3.67;;;3.38;;
12770;SDS011;6449;47.666;9.160;2022-08-04T21:20:49;3.70;;;3.40;;
12770;SDS011;6449;47.666;9.160;2022-08-04T21:25:43;2.90;;;2.70;;
12770;SDS011;6449;47.666;9.160;2022-08-04T21:30:41;3.00;;;2.80;;
12770;SDS011;6449;47.666;9.160;2022-08-04T21:35:47;3.22;;;2.92;;
12770;SDS011;6449;47.666;9.160;2022-08-04T21:40:51;3.15;;;2.88;;
12770;SDS011;6449;47.666;9.160;2022-08-04T21:45:58;3.65;;;3.13;;
12770;SDS011;6449;47.666;9.160;2022-08-04T21:51:01;3.20;;;2.90;;
12770;SDS011;6449;47.666;9.160;2022-08-04T21:56:45;3.50;;;3.20;;
12770;SDS011;6449;47.666;9.160;2022-08-04T22:01:42;2.85;;;2.65;;
12770;SDS011;6449;47.666;9.160;2022-08-04T22:06:45;5.72;;;2.70;;
12770;SDS011;6449;47.666;9.160;2022-08-04T22:12:13;3.17;;;2.88;;
12770;SDS011;6449;47.666;9.160;2022-08-04T22:17:49;2.88;;;2.67;;
12770;SDS011;6449;47.666;9.160;2022-08-04T22:28:40;3.17;;;2.90;;
12770;SDS011;6449;47.666;9.160;2022-08-04T22:33:59;4.45;;;3.00;;
12770;SDS011;6449;47.666;9.160;2022-08-04T22:39:25;3.10;;;2.90;;
12770;SDS011;6449;47.666;9.160;2022-08-04T22:44:47;4.22;;;3.22;;
12770;SDS011;6449;47.666;9.160;2022-08-04T22:49:59;3.60;;;2.85;;
12770;SDS011;6449;47.666;9.160;2022-08-04T22:55:19;3.47;;;3.00;;
12770;SDS011;6449;47.666;9.160;2022-08-04T23:00:13;3.10;;;2.65;;
12770;SDS011;6449;47.666;9.160;2022-08-04T23:05:07;2.90;;;2.60;;
12770;SDS011;6449;47.666;9.160;2022-08-04T23:10:06;2.70;;;2.50;;
12770;SDS011;6449;47.666;9.160;2022-08-04T23:15:02;2.85;;;2.53;;
12770;SDS011;6449;47.666;9.160;2022-08-04T23:19:57;2.83;;;2.63;;
12770;SDS011;6449;47.666;9.160;2022-08-04T23:24:50;2.85;;;2.63;;
12770;SDS011;6449;47.666;9.160;2022-08-04T23:29:44;3.05;;;2.85;;
12770;SDS011;6449;47.666;9.160;2022-08-04T23:34:46;2.88;;;2.67;;
12770;SDS011;6449;47.666;9.160;2022-08-04T23:39:39;2.80;;;2.60;;
12770;SDS011;6449;47.666;9.160;2022-08-04T23:44:53;3.05;;;2.67;;
12770;SDS011;6449;47.666;9.160;2022-08-04T23:49:47;2.70;;;2.50;;
12770;SDS011;6449;47.666;9.160;2022-08-04T23:54:49;2.75;;;2.55;;
12770;SDS011;6449;47.666;9.160;2022-08-04T23:59:43;2.90;;;2.70;;
